Bullhead City, AZ (86426)

9:50 PM MST on August 28, 2016 (GMT -0700)
rural | | Change Station

Elev 673 ft 35.01 °N, 114.57 °W | Updated 2 minutes ago

Clear
Clear
92.8 °F
Feels Like 89 °F
N
1.7
Wind Variable Wind from North

Today
High -- | Low -- °F
--% Chance of Precip.
Yesterday
High -- | Low -- °F
Precip. -- in
Pressure 29.88 in
Visibility 10.0 miles
Clouds Clear
Heat Index 89 °F
Dew Point 48 °F
Humidity 22%
Rainfall Not available.
Snow Depth Not available.
6:08 AM 7:09 PM
Waning Crescent, 11% visible
METAR KIFP 290435Z AUTO 06003KT 10SM CLR 34/07 A2988 RMK AO2
Pressure 29.88 in
Visibility 10.0 miles
Clouds Clear
Heat Index 89 °F
Dew Point 48 °F
Humidity 22%
Rainfall Not available.
Snow Depth Not available.
6:08 AM 7:09 PM
Waning Crescent, 11% visible
METAR KIFP 290435Z AUTO 06003KT 10SM CLR 34/07 A2988 RMK AO2

10-Day Weather Forecast

Almanac

Astronomy

Aug. 28, 2016 Rise Set
Actual Time
Civil Twilight
Nautical Twilight
Astronomical Twilight
Moon
Length of Visible Light
Length of Day
Tomorrow will be .
, % of the Moon is Illuminated

Today's Extremes

State Highs State Lows

Community

WunderPhotos

Upload Photos

1,935,799 photos uploaded!

WunderBlog® & News

Nearby

Air Quality

  Air Quality AQ Index Pollutant
Not available.

Snow Depth

Station Depth Elevation

Earthquake Activity

City Distance Mag. Time & Date
Minimum magnitude displayed is 2.5.

Coastal Water Temperatures

Place Temperature

Stations

Nearby Weather Stations

Station Location Temp. Windchill Dew Point Humidity Wind Precip. Elev Updated Type
                   

Watches & Warnings

There are currently no watches in effect.